Time;durP1;ratioP1;P1;durP2;ratioP2;P2;SDS_P1;SDS_P2;PMS_P1;PMS_P2;Temp;Humidity;BMP_temperature;BMP_pressure;BME280_temperature;BME280_humidity;BME280_pressure;Samples;Min_cycle;Max_cycle;Signal;HPM_P1;HPM_P2
2023/05/17 00:01:09;;;;;;;14.57;2.75;;;39.70;21.20;;;;;;5052625;28;20032;-67
2023/05/17 00:03:36;;;;;;;7.22;2.22;;;39.70;20.90;;;;;;5050009;28;20029;-68
2023/05/17 00:06:02;;;;;;;16.70;2.45;;;39.60;21.00;;;;;;5052855;28;20059;-68
2023/05/17 00:08:29;;;;;;;11.13;2.17;;;39.40;21.00;;;;;;5052957;28;20024;-71
2023/05/17 00:10:55;;;;;;;11.05;2.47;;;39.40;21.00;;;;;;5053275;28;20037;-71
2023/05/17 00:13:22;;;;;;;14.25;2.80;;;39.40;21.20;;;;;;5055451;28;20407;-71
2023/05/17 00:15:48;;;;;;;8.35;2.22;;;39.40;21.00;;;;;;5055768;28;20016;-72
2023/05/17 00:18:15;;;;;;;11.60;2.30;;;39.30;20.80;;;;;;5049658;28;20021;-70
2023/05/17 00:20:41;;;;;;;6.50;2.00;;;39.20;21.20;;;;;;5053336;28;20017;-72
2023/05/17 00:23:07;;;;;;;10.45;2.15;;;39.20;20.60;;;;;;5054617;28;20029;-73
2023/05/17 00:25:34;;;;;;;11.48;2.10;;;39.20;20.70;;;;;;5051055;28;20025;-74
2023/05/17 00:28:00;;;;;;;15.00;2.15;;;39.00;21.10;;;;;;5056991;28;20051;-71
2023/05/17 00:30:28;;;;;;;17.10;2.88;;;38.90;20.70;;;;;;5051901;28;20056;-71
2023/05/17 00:32:56;;;;;;;7.68;1.70;;;38.80;20.50;;;;;;5057792;28;20548;-72
2023/05/17 00:35:23;;;;;;;9.77;2.20;;;38.80;20.50;;;;;;5052105;28;20040;-72
2023/05/17 00:37:49;;;;;;;12.88;2.65;;;38.80;20.40;;;;;;5057713;28;20036;-72
2023/05/17 00:40:17;;;;;;;8.10;1.98;;;38.70;20.00;;;;;;5055519;28;20453;-67
2023/05/17 00:42:43;;;;;;;10.73;2.15;;;38.60;20.50;;;;;;5055107;28;20024;-65
2023/05/17 00:45:10;;;;;;;13.25;2.22;;;38.60;20.70;;;;;;5059927;28;20360;-66
2023/05/17 00:47:36;;;;;;;13.93;2.45;;;38.50;20.20;;;;;;5057506;28;20456;-64
2023/05/17 00:50:04;;;;;;;10.82;2.20;;;38.50;20.30;;;;;;5054090;28;20029;-72
2023/05/17 00:52:30;;;;;;;9.35;2.70;;;38.40;20.60;;;;;;5052089;28;20017;-70
2023/05/17 00:54:57;;;;;;;9.90;2.30;;;38.50;20.20;;;;;;5057034;28;20039;-71
2023/05/17 00:57:23;;;;;;;11.85;2.33;;;38.40;20.20;;;;;;5055893;28;20018;-72
2023/05/17 00:59:51;;;;;;;7.00;1.95;;;38.40;20.60;;;;;;5051484;28;20021;-70
2023/05/17 01:02:18;;;;;;;12.98;2.30;;;38.30;20.20;;;;;;5056597;28;20043;-73
2023/05/17 01:04:45;;;;;;;10.10;2.30;;;38.30;20.80;;;;;;5054617;28;20029;-65
2023/05/17 01:07:11;;;;;;;13.55;2.72;;;38.20;20.30;;;;;;5057781;28;20028;-71
2023/05/17 01:09:38;;;;;;;21.60;4.65;;;38.10;20.30;;;;;;5057690;28;20041;-69
2023/05/17 01:12:17;;;;;;;13.52;2.42;;;38.10;20.80;;;;;;5052090;28;20025;-69
2023/05/17 01:15:07;;;;;;;10.75;2.70;;;38.00;21.00;;;;;;5052015;28;20388;-70
2023/05/17 01:17:45;;;;;;;13.48;2.47;;;38.00;20.10;;;;;;5053519;28;20433;-69
2023/05/17 01:20:40;;;;;;;14.27;2.33;;;37.90;20.00;;;;;;5056429;28;20031;-70
2023/05/17 01:23:30;;;;;;;19.02;2.47;;;37.80;19.70;;;;;;5055248;28;20060;-68
2023/05/17 01:26:16;;;;;;;11.30;2.17;;;37.80;20.00;;;;;;5052619;28;20499;-71
2023/05/17 01:28:46;;;;;;;8.45;1.70;;;37.90;19.90;;;;;;5056785;28;20025;-68
2023/05/17 01:31:13;;;;;;;14.38;2.20;;;37.90;19.80;;;;;;5052767;28;20062;-72
2023/05/17 01:33:40;;;;;;;13.15;2.90;;;37.90;20.00;;;;;;5054240;28;20020;-71
2023/05/17 01:36:07;;;;;;;16.60;2.25;;;37.90;19.80;;;;;;5054818;28;20025;-68
2023/05/17 01:38:34;;;;;;;15.25;2.00;;;37.90;20.20;;;;;;5058153;28;20101;-70
2023/05/17 01:41:17;;;;;;;32.42;2.80;;;37.80;19.80;;;;;;5060889;28;20024;-66
2023/05/17 01:43:43;;;;;;;24.83;2.65;;;37.70;20.10;;;;;;5053641;28;20517;-68
2023/05/17 01:46:36;;;;;;;14.45;2.70;;;37.60;20.00;;;;;;5054070;28;20037;-67
2023/05/17 01:49:15;;;;;;;36.35;2.75;;;37.60;19.70;;;;;;5052742;28;20036;-70
2023/05/17 01:51:59;;;;;;;12.50;2.97;;;37.70;19.50;;;;;;5038494;28;20025;-68
2023/05/17 01:54:34;;;;;;;33.38;3.50;;;38.20;19.30;;;;;;5056109;28;20037;-67
2023/05/17 01:57:06;;;;;;;27.20;3.10;;;38.70;19.40;;;;;;5050593;28;20480;-66
2023/05/17 01:59:37;;;;;;;28.55;3.25;;;38.70;18.80;;;;;;5051554;28;20025;-66
2023/05/17 02:02:08;;;;;;;24.13;3.05;;;38.20;18.70;;;;;;5058122;28;20020;-67
2023/05/17 02:04:35;;;;;;;13.93;2.67;;;37.70;19.10;;;;;;5055339;28;20063;-70
2023/05/17 02:07:03;;;;;;;21.88;4.10;;;37.40;19.60;;;;;;5054057;28;20017;-72
2023/05/17 02:09:29;;;;;;;12.05;2.70;;;37.10;20.80;;;;;;5063095;28;20016;-71
2023/05/17 02:11:56;;;;;;;26.23;3.40;;;36.70;19.60;;;;;;5059011;28;20089;-72
2023/05/17 02:14:22;;;;;;;54.33;4.65;;;36.50;20.10;;;;;;5051965;28;20055;-72
2023/05/17 02:16:49;;;;;;;29.13;4.03;;;36.30;20.00;;;;;;5053563;28;20036;-71
2023/05/17 02:19:15;;;;;;;23.05;2.97;;;36.00;19.90;;;;;;5057062;28;20025;-73
2023/05/17 02:21:42;;;;;;;29.83;3.65;;;35.90;19.90;;;;;;5053970;28;20025;-76
2023/05/17 02:24:08;;;;;;;23.27;3.63;;;35.80;19.80;;;;;;5055283;28;20162;-71
2023/05/17 02:26:35;;;;;;;34.65;11.32;;;35.90;20.30;;;;;;5054070;28;20025;-64
2023/05/17 02:29:01;;;;;;;41.35;12.15;;;36.00;19.80;;;;;;5057547;28;20032;-65
2023/05/17 02:31:30;;;;;;;16.42;3.15;;;36.00;20.20;;;;;;5061080;28;20036;-66
2023/05/17 02:33:58;;;;;;;23.73;3.80;;;36.00;19.70;;;;;;5058407;28;20032;-69
2023/05/17 02:36:28;;;;;;;22.17;3.33;;;36.10;20.00;;;;;;5051530;28;20028;-66
2023/05/17 02:38:54;;;;;;;16.75;3.00;;;36.10;19.60;;;;;;5058883;28;20075;-68
2023/05/17 02:41:42;;;;;;;22.10;3.45;;;36.00;19.50;;;;;;5053728;28;20037;-69
2023/05/17 02:44:13;;;;;;;24.13;4.32;;;36.00;19.80;;;;;;5064487;28;20117;-63
2023/05/17 02:46:44;;;;;;;33.97;6.78;;;36.00;19.90;;;;;;5055406;28;20039;-65
2023/05/17 02:49:11;;;;;;;25.70;9.13;;;36.00;20.60;;;;;;5055786;28;20181;-68
2023/05/17 02:51:37;;;;;;;23.98;6.30;;;35.90;20.10;;;;;;5060539;28;20017;-68
2023/05/17 02:54:05;;;;;;;45.25;6.65;;;35.70;20.40;;;;;;5055429;28;20112;-67
2023/05/17 02:56:35;;;;;;;26.10;5.13;;;35.70;20.40;;;;;;5039088;28;20437;-68
2023/05/17 02:59:02;;;;;;;24.27;3.92;;;35.70;20.80;;;;;;5055614;28;20028;-67
2023/05/17 03:01:30;;;;;;;19.80;3.85;;;35.60;21.20;;;;;;5049954;28;20166;-68
2023/05/17 03:03:57;;;;;;;13.00;2.42;;;35.50;21.40;;;;;;5051980;28;20467;-67
2023/05/17 03:06:24;;;;;;;14.80;3.03;;;35.30;21.50;;;;;;5047469;28;20083;-66
2023/05/17 03:08:51;;;;;;;16.48;3.78;;;35.30;22.80;;;;;;5049102;28;20052;-66
2023/05/17 03:11:19;;;;;;;18.10;3.90;;;35.20;22.10;;;;;;5047443;28;20507;-65
2023/05/17 03:13:50;;;;;;;26.63;4.85;;;35.10;22.20;;;;;;5049078;28;20017;-66
2023/05/17 03:16:18;;;;;;;16.52;4.22;;;35.00;22.40;;;;;;5049308;28;20106;-67
2023/05/17 03:18:48;;;;;;;23.20;4.70;;;34.90;22.60;;;;;;5048088;28;20051;-66
2023/05/17 03:21:16;;;;;;;19.83;4.05;;;34.90;22.90;;;;;;5047173;28;20124;-66
2023/05/17 03:23:45;;;;;;;29.83;4.07;;;34.70;22.90;;;;;;5049002;28;20029;-66
2023/05/17 03:26:12;;;;;;;25.15;3.55;;;34.60;23.00;;;;;;5047674;28;20028;-65
2023/05/17 03:28:39;;;;;;;31.42;3.72;;;34.60;23.10;;;;;;5046498;28;20438;-67
2023/05/17 03:31:05;;;;;;;19.60;3.63;;;34.50;23.10;;;;;;5048409;28;20028;-66
2023/05/17 03:33:32;;;;;;;25.83;3.60;;;34.40;23.50;;;;;;5047722;28;20147;-66
2023/05/17 03:35:59;;;;;;;28.67;3.90;;;34.40;23.60;;;;;;5046814;28;20442;-67
2023/05/17 03:38:26;;;;;;;24.25;4.03;;;34.30;23.60;;;;;;5046073;28;20113;-65
2023/05/17 03:41:01;;;;;;;23.85;4.68;;;34.20;23.60;;;;;;5046196;28;20044;-66
2023/05/17 03:43:27;;;;;;;22.73;4.40;;;34.20;23.70;;;;;;5048153;28;20462;-68
2023/05/17 03:45:54;;;;;;;44.28;5.82;;;34.10;23.70;;;;;;5048049;28;20025;-67
2023/05/17 03:48:21;;;;;;;33.03;4.28;;;34.00;23.90;;;;;;5045711;28;20044;-67
2023/05/17 03:50:47;;;;;;;23.98;4.78;;;33.90;24.00;;;;;;5047005;28;20021;-66
2023/05/17 03:53:14;;;;;;;22.05;4.65;;;33.80;24.00;;;;;;5048387;28;20502;-67
2023/05/17 03:55:44;;;;;;;30.38;5.03;;;33.80;24.10;;;;;;5046690;28;20017;-67
2023/05/17 03:58:11;;;;;;;29.83;4.97;;;33.70;24.10;;;;;;5050561;28;20017;-67
2023/05/17 04:00:37;;;;;;;34.00;4.65;;;33.60;24.40;;;;;;5047391;28;20032;-69
2023/05/17 04:03:04;;;;;;;28.40;4.60;;;33.50;24.60;;;;;;5045698;28;20060;-66
2023/05/17 04:05:31;;;;;;;44.30;4.72;;;33.50;24.80;;;;;;5047559;28;20662;-67
2023/05/17 04:07:58;;;;;;;36.85;5.07;;;33.40;25.00;;;;;;5048380;28;20047;-66
2023/05/17 04:10:25;;;;;;;21.95;3.88;;;33.30;25.30;;;;;;5051075;28;20045;-68
2023/05/17 04:12:52;;;;;;;29.05;4.03;;;33.20;25.50;;;;;;5044783;28;20029;-67
2023/05/17 04:15:19;;;;;;;35.85;4.18;;;33.10;25.60;;;;;;5047521;28;20087;-65
2023/05/17 04:17:45;;;;;;;31.67;4.05;;;33.00;25.80;;;;;;5046202;28;20025;-69
2023/05/17 04:20:12;;;;;;;41.65;3.80;;;33.00;25.90;;;;;;5047093;28;20054;-65
2023/05/17 04:22:41;;;;;;;34.85;3.85;;;32.90;26.30;;;;;;5047112;28;20037;-68
2023/05/17 04:25:09;;;;;;;24.13;3.75;;;32.80;26.40;;;;;;5046996;28;20025;-66
2023/05/17 04:27:35;;;;;;;33.42;4.10;;;32.80;26.70;;;;;;5042406;28;20055;-68
2023/05/17 04:30:03;;;;;;;23.45;3.42;;;32.70;26.70;;;;;;5051544;28;20059;-65
2023/05/17 04:32:30;;;;;;;24.05;4.32;;;32.60;26.80;;;;;;5050595;28;20033;-66
2023/05/17 04:34:56;;;;;;;29.83;4.93;;;32.50;26.80;;;;;;5048205;28;20029;-68
2023/05/17 04:37:23;;;;;;;25.85;3.70;;;32.50;26.90;;;;;;5050246;28;20044;-67
2023/05/17 04:39:52;;;;;;;28.20;3.58;;;32.50;26.80;;;;;;5046466;28;20452;-66
2023/05/17 04:42:18;;;;;;;17.98;3.53;;;32.40;26.70;;;;;;5053511;28;20474;-68
2023/05/17 04:44:45;;;;;;;15.60;2.80;;;32.40;26.90;;;;;;5049647;28;20028;-67
2023/05/17 04:47:12;;;;;;;19.80;2.95;;;32.30;26.70;;;;;;5049939;28;20472;-68
2023/05/17 04:49:39;;;;;;;15.10;4.07;;;32.30;26.80;;;;;;5053884;28;20028;-69
2023/05/17 04:52:05;;;;;;;18.08;3.33;;;32.20;26.60;;;;;;5056042;28;20134;-66
2023/05/17 04:54:32;;;;;;;22.70;3.60;;;32.20;26.80;;;;;;5059061;28;20021;-69
2023/05/17 04:56:58;;;;;;;15.70;3.30;;;32.20;26.50;;;;;;5055793;28;20131;-69
2023/05/17 05:02:47;;;;;;;13.55;3.47;;;32.10;26.00;;;;;;5056155;28;20085;-68
2023/05/17 05:05:13;;;;;;;18.17;3.25;;;32.10;25.80;;;;;;5058135;28;20091;-67
2023/05/17 05:07:40;;;;;;;18.80;3.25;;;32.00;25.50;;;;;;5059347;28;20468;-66
2023/05/17 05:10:07;;;;;;;28.65;3.63;;;32.00;25.50;;;;;;5053179;28;20048;-68
2023/05/17 05:12:33;;;;;;;24.48;3.67;;;32.00;25.30;;;;;;5052889;28;20063;-68
2023/05/17 05:15:00;;;;;;;26.70;4.30;;;31.90;25.10;;;;;;5052836;28;20027;-66
2023/05/17 05:17:26;;;;;;;18.30;3.50;;;31.90;25.00;;;;;;5062136;28;20492;-69
2023/05/17 05:19:53;;;;;;;24.50;3.97;;;31.90;25.70;;;;;;5057435;28;20024;-67
2023/05/17 05:22:19;;;;;;;14.57;4.72;;;31.80;26.10;;;;;;5060679;28;20035;-67
2023/05/17 05:24:46;;;;;;;26.38;3.90;;;31.70;26.40;;;;;;5054651;28;20498;-67
2023/05/17 05:27:13;;;;;;;22.17;3.92;;;31.60;26.80;;;;;;5063372;28;20133;-67
2023/05/17 05:29:41;;;;;;;13.05;3.72;;;31.50;26.50;;;;;;5055676;28;20035;-69
2023/05/17 05:32:08;;;;;;;20.50;3.75;;;31.40;25.90;;;;;;5059322;28;20029;-67
2023/05/17 05:34:35;;;;;;;19.65;3.63;;;31.30;25.80;;;;;;5060825;28;20111;-67
2023/05/17 05:37:02;;;;;;;26.50;4.22;;;31.40;26.10;;;;;;5056762;28;20209;-70
2023/05/17 05:39:29;;;;;;;22.08;4.00;;;31.40;26.50;;;;;;5053309;28;20050;-73
2023/05/17 05:41:55;;;;;;;14.23;3.33;;;31.30;27.00;;;;;;5057281;28;20062;-67
2023/05/17 05:44:22;;;;;;;21.48;3.50;;;31.30;27.00;;;;;;5053837;28;20058;-69
2023/05/17 05:46:49;;;;;;;145.43;10.05;;;31.20;26.30;;;;;;5052125;28;20090;-71
2023/05/17 05:49:15;;;;;;;21.85;3.38;;;31.20;28.10;;;;;;5059946;28;20148;-71
2023/05/17 05:51:42;;;;;;;20.75;11.90;;;31.10;27.00;;;;;;5058746;28;20056;-72
2023/05/17 05:54:09;;;;;;;20.40;4.90;;;31.00;26.90;;;;;;5057009;28;20064;-68
2023/05/17 05:56:36;;;;;;;15.23;4.45;;;31.00;27.50;;;;;;5064783;28;20034;-69
2023/05/17 05:59:03;;;;;;;18.25;3.35;;;30.90;27.20;;;;;;5058031;28;20032;-70
2023/05/17 06:01:30;;;;;;;18.58;3.72;;;30.90;27.60;;;;;;5053972;28;20047;-68
2023/05/17 06:03:56;;;;;;;23.00;3.85;;;30.80;27.60;;;;;;5056899;28;20044;-68
2023/05/17 06:06:23;;;;;;;16.30;4.22;;;30.70;27.50;;;;;;5036345;28;20746;-68
2023/05/17 06:08:50;;;;;;;11.80;3.67;;;30.70;27.60;;;;;;5061836;28;20067;-67
2023/05/17 06:11:19;;;;;;;11.45;3.60;;;30.60;27.50;;;;;;5052921;28;20067;-69
2023/05/17 06:13:46;;;;;;;18.88;3.50;;;30.50;27.60;;;;;;5057455;28;20043;-69
2023/05/17 06:16:13;;;;;;;19.05;3.50;;;30.40;27.70;;;;;;5054856;28;20040;-67
2023/05/17 06:18:39;;;;;;;16.80;3.40;;;30.20;27.50;;;;;;5057340;28;20122;-69
2023/05/17 06:21:06;;;;;;;19.50;3.38;;;30.20;27.40;;;;;;5056381;28;20043;-70
2023/05/17 06:23:32;;;;;;;15.20;3.28;;;30.20;27.50;;;;;;5056427;28;20040;-69
2023/05/17 06:25:59;;;;;;;12.65;3.22;;;30.20;27.10;;;;;;5054236;28;20065;-70
2023/05/17 06:28:25;;;;;;;13.10;3.22;;;30.20;27.00;;;;;;5057188;28;20410;-68
2023/05/17 06:30:52;;;;;;;10.82;2.50;;;30.10;26.60;;;;;;5059844;28;20058;-68
2023/05/17 06:33:18;;;;;;;17.85;2.97;;;30.10;26.50;;;;;;5054942;28;20116;-68
2023/05/17 06:35:45;;;;;;;20.85;3.22;;;30.10;26.80;;;;;;5057172;28;20131;-69
2023/05/17 06:38:11;;;;;;;15.20;2.97;;;30.10;27.00;;;;;;5056381;28;20037;-70
